sensor_id;sensor_type;location;lat;lon;timestamp;temperature;humidity
4526;DHT22;2275;52.208;8.804;2022-09-09T00:00:14;16.60;1.00
4526;DHT22;2275;52.208;8.804;2022-09-09T00:02:45;16.60;1.00
4526;DHT22;2275;52.208;8.804;2022-09-09T00:05:17;16.50;1.00
4526;DHT22;2275;52.208;8.804;2022-09-09T00:07:47;16.50;1.00
4526;DHT22;2275;52.208;8.804;2022-09-09T00:10:26;16.40;1.00
4526;DHT22;2275;52.208;8.804;2022-09-09T00:13:34;16.50;1.00
4526;DHT22;2275;52.208;8.804;2022-09-09T00:18:27;16.50;1.00
4526;DHT22;2275;52.208;8.804;2022-09-09T00:23:41;16.50;1.00
4526;DHT22;2275;52.208;8.804;2022-09-09T00:26:14;16.50;1.00
4526;DHT22;2275;52.208;8.804;2022-09-09T00:28:52;16.50;1.00
4526;DHT22;2275;52.208;8.804;2022-09-09T00:31:20;16.50;1.00
4526;DHT22;2275;52.208;8.804;2022-09-09T00:33:47;16.50;1.00
4526;DHT22;2275;52.208;8.804;2022-09-09T00:36:15;16.50;1.00
4526;DHT22;2275;52.208;8.804;2022-09-09T00:38:56;16.60;1.00
4526;DHT22;2275;52.208;8.804;2022-09-09T00:42:15;16.70;1.00
4526;DHT22;2275;52.208;8.804;2022-09-09T00:44:31;16.70;1.00
4526;DHT22;2275;52.208;8.804;2022-09-09T00:49:54;16.70;1.00
4526;DHT22;2275;52.208;8.804;2022-09-09T00:52:22;16.70;1.00
4526;DHT22;2275;52.208;8.804;2022-09-09T00:57:28;16.70;1.00
4526;DHT22;2275;52.208;8.804;2022-09-09T01:00:00;16.70;1.00
4526;DHT22;2275;52.208;8.804;2022-09-09T01:02:28;16.70;1.00
4526;DHT22;2275;52.208;8.804;2022-09-09T01:04:56;16.80;1.00
4526;DHT22;2275;52.208;8.804;2022-09-09T01:07:22;16.90;1.00
4526;DHT22;2275;52.208;8.804;2022-09-09T01:09:56;16.90;1.00
4526;DHT22;2275;52.208;8.804;2022-09-09T01:12:29;16.90;1.00
4526;DHT22;2275;52.208;8.804;2022-09-09T01:15:09;16.80;1.00
4526;DHT22;2275;52.208;8.804;2022-09-09T01:17:44;16.60;1.00
4526;DHT22;2275;52.208;8.804;2022-09-09T01:20:19;16.40;1.20
4526;DHT22;2275;52.208;8.804;2022-09-09T01:25:29;16.30;7.30
4526;DHT22;2275;52.208;8.804;2022-09-09T01:27:58;16.20;10.50
4526;DHT22;2275;52.208;8.804;2022-09-09T01:30:24;16.10;15.40
4526;DHT22;2275;52.208;8.804;2022-09-09T01:32:54;16.10;16.80
4526;DHT22;2275;52.208;8.804;2022-09-09T01:35:29;16.00;17.10
4526;DHT22;2275;52.208;8.804;2022-09-09T01:37:54;16.00;16.60
4526;DHT22;2275;52.208;8.804;2022-09-09T01:40:21;16.00;15.40
4526;DHT22;2275;52.208;8.804;2022-09-09T01:42:49;16.00;15.00
4526;DHT22;2275;52.208;8.804;2022-09-09T01:45:16;16.00;15.40
4526;DHT22;2275;52.208;8.804;2022-09-09T01:47:44;16.00;22.30
4526;DHT22;2275;52.208;8.804;2022-09-09T01:50:11;16.00;22.60
4526;DHT22;2275;52.208;8.804;2022-09-09T01:52:38;16.00;21.00
4526;DHT22;2275;52.208;8.804;2022-09-09T01:55:06;16.00;20.50
4526;DHT22;2275;52.208;8.804;2022-09-09T01:57:38;16.00;19.70
4526;DHT22;2275;52.208;8.804;2022-09-09T02:00:06;16.00;17.80
4526;DHT22;2275;52.208;8.804;2022-09-09T02:02:45;16.10;14.50
4526;DHT22;2275;52.208;8.804;2022-09-09T02:05:22;16.10;11.10
4526;DHT22;2275;52.208;8.804;2022-09-09T02:07:48;16.10;10.60
4526;DHT22;2275;52.208;8.804;2022-09-09T02:10:20;16.10;10.10
4526;DHT22;2275;52.208;8.804;2022-09-09T02:12:49;16.10;7.60
4526;DHT22;2275;52.208;8.804;2022-09-09T02:15:17;16.20;2.80
4526;DHT22;2275;52.208;8.804;2022-09-09T02:17:42;16.20;5.90
4526;DHT22;2275;52.208;8.804;2022-09-09T02:20:12;16.20;1.80
4526;DHT22;2275;52.208;8.804;2022-09-09T02:22:37;16.20;1.40
4526;DHT22;2275;52.208;8.804;2022-09-09T02:25:06;16.30;3.80
4526;DHT22;2275;52.208;8.804;2022-09-09T02:27:33;16.30;3.10
4526;DHT22;2275;52.208;8.804;2022-09-09T02:30:00;16.30;2.50
4526;DHT22;2275;52.208;8.804;2022-09-09T02:32:28;16.30;2.80
4526;DHT22;2275;52.208;8.804;2022-09-09T02:34:58;16.30;2.30
4526;DHT22;2275;52.208;8.804;2022-09-09T02:37:25;16.30;6.70
4526;DHT22;2275;52.208;8.804;2022-09-09T02:39:51;16.20;6.30
4526;DHT22;2275;52.208;8.804;2022-09-09T02:42:18;16.30;7.80
4526;DHT22;2275;52.208;8.804;2022-09-09T02:44:45;16.30;7.50
4526;DHT22;2275;52.208;8.804;2022-09-09T02:47:22;16.40;4.00
4526;DHT22;2275;52.208;8.804;2022-09-09T02:52:57;16.40;1.00
4526;DHT22;2275;52.208;8.804;2022-09-09T02:55:40;16.50;1.00
4526;DHT22;2275;52.208;8.804;2022-09-09T02:58:06;16.50;1.00
4526;DHT22;2275;52.208;8.804;2022-09-09T03:00:34;16.60;1.00
4526;DHT22;2275;52.208;8.804;2022-09-09T03:03:01;16.50;1.00
4526;DHT22;2275;52.208;8.804;2022-09-09T03:05:27;16.60;1.00
4526;DHT22;2275;52.208;8.804;2022-09-09T03:07:55;16.70;1.00
4526;DHT22;2275;52.208;8.804;2022-09-09T03:10:21;16.60;1.00
4526;DHT22;2275;52.208;8.804;2022-09-09T03:12:49;16.60;1.00
4526;DHT22;2275;52.208;8.804;2022-09-09T03:15:17;16.60;1.00
4526;DHT22;2275;52.208;8.804;2022-09-09T03:17:44;16.60;1.00
4526;DHT22;2275;52.208;8.804;2022-09-09T03:20:11;16.60;1.00
4526;DHT22;2275;52.208;8.804;2022-09-09T03:22:38;16.70;1.00
4526;DHT22;2275;52.208;8.804;2022-09-09T03:25:06;16.60;1.00
4526;DHT22;2275;52.208;8.804;2022-09-09T03:27:33;16.60;1.00
4526;DHT22;2275;52.208;8.804;2022-09-09T03:30:00;16.60;1.00
4526;DHT22;2275;52.208;8.804;2022-09-09T03:32:28;16.60;1.00
4526;DHT22;2275;52.208;8.804;2022-09-09T03:34:55;16.60;1.00
4526;DHT22;2275;52.208;8.804;2022-09-09T03:37:22;16.50;1.00
4526;DHT22;2275;52.208;8.804;2022-09-09T03:39:49;16.40;1.00
4526;DHT22;2275;52.208;8.804;2022-09-09T03:42:17;16.30;6.90
4526;DHT22;2275;52.208;8.804;2022-09-09T03:44:48;16.10;17.10
4526;DHT22;2275;52.208;8.804;2022-09-09T03:47:20;16.10;16.70
4526;DHT22;2275;52.208;8.804;2022-09-09T03:49:47;16.10;17.90
4526;DHT22;2275;52.208;8.804;2022-09-09T03:52:14;16.10;19.20
4526;DHT22;2275;52.208;8.804;2022-09-09T03:54:41;16.00;20.10
4526;DHT22;2275;52.208;8.804;2022-09-09T03:57:09;16.00;18.90
4526;DHT22;2275;52.208;8.804;2022-09-09T03:59:36;16.00;20.40
4526;DHT22;2275;52.208;8.804;2022-09-09T04:02:04;16.00;21.70
4526;DHT22;2275;52.208;8.804;2022-09-09T04:04:31;15.90;23.20
4526;DHT22;2275;52.208;8.804;2022-09-09T04:06:58;16.00;22.50
4526;DHT22;2275;52.208;8.804;2022-09-09T04:09:25;16.10;21.40
4526;DHT22;2275;52.208;8.804;2022-09-09T04:11:52;16.10;19.80
4526;DHT22;2275;52.208;8.804;2022-09-09T04:14:20;16.10;21.40
4526;DHT22;2275;52.208;8.804;2022-09-09T04:16:46;16.10;19.70
4526;DHT22;2275;52.208;8.804;2022-09-09T04:19:13;16.20;21.80
4526;DHT22;2275;52.208;8.804;2022-09-09T04:21:41;16.30;17.70
4526;DHT22;2275;52.208;8.804;2022-09-09T04:24:08;16.30;17.40
4526;DHT22;2275;52.208;8.804;2022-09-09T04:26:36;16.30;19.50
4526;DHT22;2275;52.208;8.804;2022-09-09T04:29:03;16.40;17.20
4526;DHT22;2275;52.208;8.804;2022-09-09T04:31:29;16.40;16.50
4526;DHT22;2275;52.208;8.804;2022-09-09T04:33:59;16.50;14.20
4526;DHT22;2275;52.208;8.804;2022-09-09T04:36:28;16.60;8.70
4526;DHT22;2275;52.208;8.804;2022-09-09T04:38:55;16.60;9.90
4526;DHT22;2275;52.208;8.804;2022-09-09T04:41:22;16.70;2.30
4526;DHT22;2275;52.208;8.804;2022-09-09T04:43:50;16.70;15.60
4526;DHT22;2275;52.208;8.804;2022-09-09T04:46:17;16.60;15.20
4526;DHT22;2275;52.208;8.804;2022-09-09T04:48:44;16.70;8.30
4526;DHT22;2275;52.208;8.804;2022-09-09T04:51:13;16.70;10.00
4526;DHT22;2275;52.208;8.804;2022-09-09T04:53:39;16.80;3.80
4526;DHT22;2275;52.208;8.804;2022-09-09T04:56:08;16.70;1.00
4526;DHT22;2275;52.208;8.804;2022-09-09T04:58:34;16.70;1.00
4526;DHT22;2275;52.208;8.804;2022-09-09T05:01:04;16.70;1.00
4526;DHT22;2275;52.208;8.804;2022-09-09T05:03:30;16.70;1.10
4526;DHT22;2275;52.208;8.804;2022-09-09T05:06:03;16.70;4.20
4526;DHT22;2275;52.208;8.804;2022-09-09T05:08:30;16.70;5.50
4526;DHT22;2275;52.208;8.804;2022-09-09T05:10:57;16.60;5.50
4526;DHT22;2275;52.208;8.804;2022-09-09T05:13:24;16.50;11.40
4526;DHT22;2275;52.208;8.804;2022-09-09T05:15:53;16.40;18.60
4526;DHT22;2275;52.208;8.804;2022-09-09T05:18:21;16.10;30.00
4526;DHT22;2275;52.208;8.804;2022-09-09T05:20:48;16.10;29.10
4526;DHT22;2275;52.208;8.804;2022-09-09T05:23:15;16.00;34.60
4526;DHT22;2275;52.208;8.804;2022-09-09T05:25:42;15.90;40.40
4526;DHT22;2275;52.208;8.804;2022-09-09T05:28:09;15.70;44.70
4526;DHT22;2275;52.208;8.804;2022-09-09T05:30:36;15.60;49.00
4526;DHT22;2275;52.208;8.804;2022-09-09T05:36:14;15.50;55.20
4526;DHT22;2275;52.208;8.804;2022-09-09T05:38:40;15.50;58.20
4526;DHT22;2275;52.208;8.804;2022-09-09T05:41:07;15.50;57.90
4526;DHT22;2275;52.208;8.804;2022-09-09T05:43:34;15.50;58.60
4526;DHT22;2275;52.208;8.804;2022-09-09T05:46:03;15.50;58.40
4526;DHT22;2275;52.208;8.804;2022-09-09T05:48:30;15.50;59.90
4526;DHT22;2275;52.208;8.804;2022-09-09T05:50:57;15.60;59.60
4526;DHT22;2275;52.208;8.804;2022-09-09T05:53:24;15.60;58.80
4526;DHT22;2275;52.208;8.804;2022-09-09T05:55:57;15.60;57.20
4526;DHT22;2275;52.208;8.804;2022-09-09T05:58:18;15.60;56.10
4526;DHT22;2275;52.208;8.804;2022-09-09T06:00:45;15.70;55.70
4526;DHT22;2275;52.208;8.804;2022-09-09T06:03:12;15.70;56.40
4526;DHT22;2275;52.208;8.804;2022-09-09T06:05:39;15.70;57.10
4526;DHT22;2275;52.208;8.804;2022-09-09T06:08:06;15.90;58.30
4526;DHT22;2275;52.208;8.804;2022-09-09T06:10:33;15.90;57.60
4526;DHT22;2275;52.208;8.804;2022-09-09T06:13:03;16.00;55.00
4526;DHT22;2275;52.208;8.804;2022-09-09T06:15:32;16.10;54.00
4526;DHT22;2275;52.208;8.804;2022-09-09T06:17:59;16.20;52.90
4526;DHT22;2275;52.208;8.804;2022-09-09T06:20:26;16.40;46.40
4526;DHT22;2275;52.208;8.804;2022-09-09T06:22:54;16.30;45.50
4526;DHT22;2275;52.208;8.804;2022-09-09T06:25:21;16.50;45.00
4526;DHT22;2275;52.208;8.804;2022-09-09T06:27:49;16.50;44.40
4526;DHT22;2275;52.208;8.804;2022-09-09T06:30:16;16.60;43.70
4526;DHT22;2275;52.208;8.804;2022-09-09T06:32:43;16.70;37.30
4526;DHT22;2275;52.208;8.804;2022-09-09T06:35:11;16.70;37.10
4526;DHT22;2275;52.208;8.804;2022-09-09T06:37:38;16.80;38.70
4526;DHT22;2275;52.208;8.804;2022-09-09T06:40:06;17.00;41.70
4526;DHT22;2275;52.208;8.804;2022-09-09T06:42:33;17.10;41.10
4526;DHT22;2275;52.208;8.804;2022-09-09T06:44:59;17.20;28.60
4526;DHT22;2275;52.208;8.804;2022-09-09T06:47:27;17.40;24.70
4526;DHT22;2275;52.208;8.804;2022-09-09T06:49:53;17.40;20.50
4526;DHT22;2275;52.208;8.804;2022-09-09T06:52:21;17.50;15.90
4526;DHT22;2275;52.208;8.804;2022-09-09T06:54:48;17.50;9.90
4526;DHT22;2275;52.208;8.804;2022-09-09T06:57:15;17.50;7.60
4526;DHT22;2275;52.208;8.804;2022-09-09T06:59:42;17.50;7.80
4526;DHT22;2275;52.208;8.804;2022-09-09T07:02:09;17.60;7.30
4526;DHT22;2275;52.208;8.804;2022-09-09T07:04:35;17.60;2.60
4526;DHT22;2275;52.208;8.804;2022-09-09T07:07:04;17.60;7.00
4526;DHT22;2275;52.208;8.804;2022-09-09T07:09:31;17.70;1.00
4526;DHT22;2275;52.208;8.804;2022-09-09T07:11:58;17.70;3.10
4526;DHT22;2275;52.208;8.804;2022-09-09T07:14:25;17.80;3.40
4526;DHT22;2275;52.208;8.804;2022-09-09T07:16:52;17.90;1.00
4526;DHT22;2275;52.208;8.804;2022-09-09T07:19:19;18.00;1.00
4526;DHT22;2275;52.208;8.804;2022-09-09T07:21:46;18.10;1.00
4526;DHT22;2275;52.208;8.804;2022-09-09T07:24:13;18.20;1.00
4526;DHT22;2275;52.208;8.804;2022-09-09T07:26:40;18.30;1.00
4526;DHT22;2275;52.208;8.804;2022-09-09T07:29:07;18.50;1.00
4526;DHT22;2275;52.208;8.804;2022-09-09T07:31:35;18.60;1.00
4526;DHT22;2275;52.208;8.804;2022-09-09T07:34:02;18.80;1.00
4526;DHT22;2275;52.208;8.804;2022-09-09T07:36:31;18.90;1.00
4526;DHT22;2275;52.208;8.804;2022-09-09T07:38:58;18.90;1.00
4526;DHT22;2275;52.208;8.804;2022-09-09T07:41:27;18.90;1.00
4526;DHT22;2275;52.208;8.804;2022-09-09T07:43:53;18.90;1.00
4526;DHT22;2275;52.208;8.804;2022-09-09T07:46:24;19.20;1.00
4526;DHT22;2275;52.208;8.804;2022-09-09T07:48:50;19.20;1.00
4526;DHT22;2275;52.208;8.804;2022-09-09T07:51:17;19.40;1.00
4526;DHT22;2275;52.208;8.804;2022-09-09T07:53:44;19.40;1.00
4526;DHT22;2275;52.208;8.804;2022-09-09T07:56:13;19.50;1.00
4526;DHT22;2275;52.208;8.804;2022-09-09T07:58:39;19.60;1.00
4526;DHT22;2275;52.208;8.804;2022-09-09T08:01:10;19.70;1.00
4526;DHT22;2275;52.208;8.804;2022-09-09T08:03:37;19.70;1.00
4526;DHT22;2275;52.208;8.804;2022-09-09T08:06:04;19.70;1.00
4526;DHT22;2275;52.208;8.804;2022-09-09T08:08:31;19.90;1.00
4526;DHT22;2275;52.208;8.804;2022-09-09T08:11:05;19.90;1.00
4526;DHT22;2275;52.208;8.804;2022-09-09T08:13:32;20.00;1.00
4526;DHT22;2275;52.208;8.804;2022-09-09T08:16:05;20.00;1.00
4526;DHT22;2275;52.208;8.804;2022-09-09T08:18:32;19.90;1.00
4526;DHT22;2275;52.208;8.804;2022-09-09T08:21:04;19.80;1.00
4526;DHT22;2275;52.208;8.804;2022-09-09T08:23:27;19.80;1.00
4526;DHT22;2275;52.208;8.804;2022-09-09T08:25:54;19.80;1.00
4526;DHT22;2275;52.208;8.804;2022-09-09T08:28:21;19.90;1.00
4526;DHT22;2275;52.208;8.804;2022-09-09T08:30:48;20.00;1.00
4526;DHT22;2275;52.208;8.804;2022-09-09T08:33:15;20.00;1.00
4526;DHT22;2275;52.208;8.804;2022-09-09T08:35:49;20.10;1.00
4526;DHT22;2275;52.208;8.804;2022-09-09T08:38:18;20.20;1.00
4526;DHT22;2275;52.208;8.804;2022-09-09T08:40:51;20.30;99.90
4526;DHT22;2275;52.208;8.804;2022-09-09T08:46:32;20.40;99.90
4526;DHT22;2275;52.208;8.804;2022-09-09T08:48:59;20.40;99.90
4526;DHT22;2275;52.208;8.804;2022-09-09T08:51:26;20.50;99.90
4526;DHT22;2275;52.208;8.804;2022-09-09T08:53:55;20.60;5.40
4526;DHT22;2275;52.208;8.804;2022-09-09T08:56:22;20.50;1.00
4526;DHT22;2275;52.208;8.804;2022-09-09T08:58:51;20.50;99.90
4526;DHT22;2275;52.208;8.804;2022-09-09T09:01:34;20.50;72.50
4526;DHT22;2275;52.208;8.804;2022-09-09T09:07:10;20.50;1.00
4526;DHT22;2275;52.208;8.804;2022-09-09T09:09:46;20.50;99.90
4526;DHT22;2275;52.208;8.804;2022-09-09T09:12:16;20.50;99.90
4526;DHT22;2275;52.208;8.804;2022-09-09T09:14:44;20.60;4.40
4526;DHT22;2275;52.208;8.804;2022-09-09T09:17:13;20.70;71.10
4526;DHT22;2275;52.208;8.804;2022-09-09T09:19:40;20.70;1.00
4526;DHT22;2275;52.208;8.804;2022-09-09T09:22:41;20.80;1.00
4526;DHT22;2275;52.208;8.804;2022-09-09T09:25:17;20.80;99.90
4526;DHT22;2275;52.208;8.804;2022-09-09T09:27:48;20.80;1.00
4526;DHT22;2275;52.208;8.804;2022-09-09T09:30:19;20.70;1.00
4526;DHT22;2275;52.208;8.804;2022-09-09T09:33:01;20.70;32.20
4526;DHT22;2275;52.208;8.804;2022-09-09T09:35:27;20.60;99.90
4526;DHT22;2275;52.208;8.804;2022-09-09T09:38:26;20.60;1.00
4526;DHT22;2275;52.208;8.804;2022-09-09T09:40:53;20.60;1.00
4526;DHT22;2275;52.208;8.804;2022-09-09T09:43:24;20.60;1.00
4526;DHT22;2275;52.208;8.804;2022-09-09T09:45:49;20.60;1.00
4526;DHT22;2275;52.208;8.804;2022-09-09T09:48:16;20.50;99.90
4526;DHT22;2275;52.208;8.804;2022-09-09T09:50:56;20.70;99.90
4526;DHT22;2275;52.208;8.804;2022-09-09T09:53:29;21.20;97.10
4526;DHT22;2275;52.208;8.804;2022-09-09T09:55:59;22.90;1.00
4526;DHT22;2275;52.208;8.804;2022-09-09T09:58:38;24.80;99.90
4526;DHT22;2275;52.208;8.804;2022-09-09T10:01:25;26.10;99.90
4526;DHT22;2275;52.208;8.804;2022-09-09T10:03:53;27.40;99.90
4526;DHT22;2275;52.208;8.804;2022-09-09T10:06:36;28.10;99.90
4526;DHT22;2275;52.208;8.804;2022-09-09T10:09:02;28.60;99.90
4526;DHT22;2275;52.208;8.804;2022-09-09T10:14:20;29.20;99.90
4526;DHT22;2275;52.208;8.804;2022-09-09T10:16:52;30.60;99.90
4526;DHT22;2275;52.208;8.804;2022-09-09T10:19:17;31.00;99.90
4526;DHT22;2275;52.208;8.804;2022-09-09T10:21:52;29.60;99.90
4526;DHT22;2275;52.208;8.804;2022-09-09T10:24:23;28.90;99.90
4526;DHT22;2275;52.208;8.804;2022-09-09T10:29:46;27.20;98.50
4526;DHT22;2275;52.208;8.804;2022-09-09T10:33:22;27.00;98.00
4526;DHT22;2275;52.208;8.804;2022-09-09T10:35:08;25.80;95.40
4526;DHT22;2275;52.208;8.804;2022-09-09T10:40:31;23.50;99.90
4526;DHT22;2275;52.208;8.804;2022-09-09T10:42:55;22.90;99.90
4526;DHT22;2275;52.208;8.804;2022-09-09T10:45:26;22.40;99.90
4526;DHT22;2275;52.208;8.804;2022-09-09T10:48:43;22.10;99.90
4526;DHT22;2275;52.208;8.804;2022-09-09T10:50:55;21.90;99.90
4526;DHT22;2275;52.208;8.804;2022-09-09T10:53:28;21.90;99.90
4526;DHT22;2275;52.208;8.804;2022-09-09T10:55:53;22.50;99.90
4526;DHT22;2275;52.208;8.804;2022-09-09T10:58:25;23.80;99.90
4526;DHT22;2275;52.208;8.804;2022-09-09T11:00:53;25.60;99.90
4526;DHT22;2275;52.208;8.804;2022-09-09T11:03:21;27.70;99.90
4526;DHT22;2275;52.208;8.804;2022-09-09T11:05:49;29.10;99.90
4526;DHT22;2275;52.208;8.804;2022-09-09T11:08:18;29.80;99.90
4526;DHT22;2275;52.208;8.804;2022-09-09T11:10:53;30.40;99.90
4526;DHT22;2275;52.208;8.804;2022-09-09T11:13:33;30.30;96.10
4526;DHT22;2275;52.208;8.804;2022-09-09T11:16:00;29.50;91.60
4526;DHT22;2275;52.208;8.804;2022-09-09T11:18:26;28.00;84.60
4526;DHT22;2275;52.208;8.804;2022-09-09T11:20:54;26.80;76.70
4526;DHT22;2275;52.208;8.804;2022-09-09T11:23:54;26.40;77.00
4526;DHT22;2275;52.208;8.804;2022-09-09T11:26:38;26.30;76.30
4526;DHT22;2275;52.208;8.804;2022-09-09T11:31:49;24.80;72.50
4526;DHT22;2275;52.208;8.804;2022-09-09T11:34:20;24.40;74.30
4526;DHT22;2275;52.208;8.804;2022-09-09T11:37:07;24.80;78.50
4526;DHT22;2275;52.208;8.804;2022-09-09T11:39:41;25.70;84.00
4526;DHT22;2275;52.208;8.804;2022-09-09T11:42:16;25.90;76.00
4526;DHT22;2275;52.208;8.804;2022-09-09T11:44:42;25.70;73.90
4526;DHT22;2275;52.208;8.804;2022-09-09T11:47:18;25.70;75.10
4526;DHT22;2275;52.208;8.804;2022-09-09T11:49:43;25.30;72.80
4526;DHT22;2275;52.208;8.804;2022-09-09T11:52:19;25.20;72.30
4526;DHT22;2275;52.208;8.804;2022-09-09T11:54:49;25.20;73.70
4526;DHT22;2275;52.208;8.804;2022-09-09T11:57:32;25.20;75.40
4526;DHT22;2275;52.208;8.804;2022-09-09T11:59:57;25.20;73.10
4526;DHT22;2275;52.208;8.804;2022-09-09T12:02:25;25.00;72.30
4526;DHT22;2275;52.208;8.804;2022-09-09T12:04:59;25.10;73.00
4526;DHT22;2275;52.208;8.804;2022-09-09T12:13:39;24.70;69.10
4526;DHT22;2275;52.208;8.804;2022-09-09T12:16:06;24.50;68.60
4526;DHT22;2275;52.208;8.804;2022-09-09T12:18:36;24.60;68.50
4526;DHT22;2275;52.208;8.804;2022-09-09T12:21:14;24.50;70.00
4526;DHT22;2275;52.208;8.804;2022-09-09T12:23:49;24.70;69.10
4526;DHT22;2275;52.208;8.804;2022-09-09T12:29:02;24.80;67.70
4526;DHT22;2275;52.208;8.804;2022-09-09T12:31:41;24.60;64.30
4526;DHT22;2275;52.208;8.804;2022-09-09T12:36:44;25.00;66.70
4526;DHT22;2275;52.208;8.804;2022-09-09T12:39:17;25.10;81.80
4526;DHT22;2275;52.208;8.804;2022-09-09T12:41:50;24.90;64.00
4526;DHT22;2275;52.208;8.804;2022-09-09T12:44:11;24.60;63.60
4526;DHT22;2275;52.208;8.804;2022-09-09T12:46:40;24.20;64.60
4526;DHT22;2275;52.208;8.804;2022-09-09T12:51:46;24.00;66.20
4526;DHT22;2275;52.208;8.804;2022-09-09T12:54:13;23.70;58.70
4526;DHT22;2275;52.208;8.804;2022-09-09T12:56:45;23.60;57.60
4526;DHT22;2275;52.208;8.804;2022-09-09T12:59:17;23.80;57.30
4526;DHT22;2275;52.208;8.804;2022-09-09T13:01:36;24.00;56.70
4526;DHT22;2275;52.208;8.804;2022-09-09T13:04:15;24.20;59.90
4526;DHT22;2275;52.208;8.804;2022-09-09T13:06:33;24.30;64.00
4526;DHT22;2275;52.208;8.804;2022-09-09T13:09:02;24.40;62.50
4526;DHT22;2275;52.208;8.804;2022-09-09T13:11:39;24.30;61.30
4526;DHT22;2275;52.208;8.804;2022-09-09T13:14:16;24.30;58.90
4526;DHT22;2275;52.208;8.804;2022-09-09T13:16:42;24.20;57.90
4526;DHT22;2275;52.208;8.804;2022-09-09T13:19:09;24.10;56.80
4526;DHT22;2275;52.208;8.804;2022-09-09T13:21:37;24.10;56.10
4526;DHT22;2275;52.208;8.804;2022-09-09T13:24:04;24.00;65.90
4526;DHT22;2275;52.208;8.804;2022-09-09T13:26:30;23.90;52.70
4526;DHT22;2275;52.208;8.804;2022-09-09T13:29:08;23.70;51.60
4526;DHT22;2275;52.208;8.804;2022-09-09T13:31:36;23.60;48.60
4526;DHT22;2275;52.208;8.804;2022-09-09T13:36:35;23.80;50.00
4526;DHT22;2275;52.208;8.804;2022-09-09T13:39:03;24.00;50.90
4526;DHT22;2275;52.208;8.804;2022-09-09T13:41:34;24.10;50.90
4526;DHT22;2275;52.208;8.804;2022-09-09T13:44:01;23.90;49.90
4526;DHT22;2275;52.208;8.804;2022-09-09T13:46:34;23.80;49.60
4526;DHT22;2275;52.208;8.804;2022-09-09T13:49:03;23.70;49.10
4526;DHT22;2275;52.208;8.804;2022-09-09T13:51:35;23.50;49.00
4526;DHT22;2275;52.208;8.804;2022-09-09T13:54:01;23.40;50.30
4526;DHT22;2275;52.208;8.804;2022-09-09T13:56:28;23.50;51.80
4526;DHT22;2275;52.208;8.804;2022-09-09T13:59:14;23.60;51.60
4526;DHT22;2275;52.208;8.804;2022-09-09T14:01:42;23.70;53.10
4526;DHT22;2275;52.208;8.804;2022-09-09T14:07:17;23.30;71.70
4526;DHT22;2275;52.208;8.804;2022-09-09T14:09:45;23.10;94.20
4526;DHT22;2275;52.208;8.804;2022-09-09T14:12:14;23.20;99.90
4526;DHT22;2275;52.208;8.804;2022-09-09T14:14:41;23.50;96.50
4526;DHT22;2275;52.208;8.804;2022-09-09T14:17:09;23.80;99.40
4526;DHT22;2275;52.208;8.804;2022-09-09T14:19:37;24.20;77.30
4526;DHT22;2275;52.208;8.804;2022-09-09T14:22:04;24.20;76.20
4526;DHT22;2275;52.208;8.804;2022-09-09T14:24:40;24.20;62.20
4526;DHT22;2275;52.208;8.804;2022-09-09T14:27:07;24.00;57.60
4526;DHT22;2275;52.208;8.804;2022-09-09T14:29:34;23.90;56.40
4526;DHT22;2275;52.208;8.804;2022-09-09T14:32:02;24.00;54.90
4526;DHT22;2275;52.208;8.804;2022-09-09T14:34:29;24.00;55.40
4526;DHT22;2275;52.208;8.804;2022-09-09T14:36:59;24.40;56.80
4526;DHT22;2275;52.208;8.804;2022-09-09T14:39:25;24.80;54.50
4526;DHT22;2275;52.208;8.804;2022-09-09T14:41:53;25.00;54.60
4526;DHT22;2275;52.208;8.804;2022-09-09T14:44:21;25.40;52.40
4526;DHT22;2275;52.208;8.804;2022-09-09T14:46:48;25.40;64.40
4526;DHT22;2275;52.208;8.804;2022-09-09T14:49:21;25.40;49.50
4526;DHT22;2275;52.208;8.804;2022-09-09T14:51:50;25.20;47.60
4526;DHT22;2275;52.208;8.804;2022-09-09T14:54:24;25.00;44.60
4526;DHT22;2275;52.208;8.804;2022-09-09T14:56:53;25.00;43.90
4526;DHT22;2275;52.208;8.804;2022-09-09T14:59:20;24.50;39.40
4526;DHT22;2275;52.208;8.804;2022-09-09T15:01:47;24.20;37.60
4526;DHT22;2275;52.208;8.804;2022-09-09T15:04:15;24.40;49.30
4526;DHT22;2275;52.208;8.804;2022-09-09T15:06:42;24.40;38.40
4526;DHT22;2275;52.208;8.804;2022-09-09T15:09:10;24.30;37.90
4526;DHT22;2275;52.208;8.804;2022-09-09T15:11:37;24.30;38.10
4526;DHT22;2275;52.208;8.804;2022-09-09T15:14:08;24.20;36.70
4526;DHT22;2275;52.208;8.804;2022-09-09T15:16:36;24.10;36.50
4526;DHT22;2275;52.208;8.804;2022-09-09T15:19:03;23.90;35.70
4526;DHT22;2275;52.208;8.804;2022-09-09T15:21:33;23.60;35.00
4526;DHT22;2275;52.208;8.804;2022-09-09T15:24:00;23.40;34.30
4526;DHT22;2275;52.208;8.804;2022-09-09T15:26:27;23.20;35.70
4526;DHT22;2275;52.208;8.804;2022-09-09T15:28:54;23.20;35.40
4526;DHT22;2275;52.208;8.804;2022-09-09T15:31:27;23.10;35.70
4526;DHT22;2275;52.208;8.804;2022-09-09T15:33:57;23.00;36.20
4526;DHT22;2275;52.208;8.804;2022-09-09T15:36:32;23.00;37.40
4526;DHT22;2275;52.208;8.804;2022-09-09T15:38:59;22.90;37.90
4526;DHT22;2275;52.208;8.804;2022-09-09T15:41:26;22.90;38.50
4526;DHT22;2275;52.208;8.804;2022-09-09T15:43:54;22.90;39.90
4526;DHT22;2275;52.208;8.804;2022-09-09T15:46:26;23.00;41.40
4526;DHT22;2275;52.208;8.804;2022-09-09T15:48:52;23.00;44.40
4526;DHT22;2275;52.208;8.804;2022-09-09T15:51:18;23.10;47.20
4526;DHT22;2275;52.208;8.804;2022-09-09T15:53:46;23.20;49.00
4526;DHT22;2275;52.208;8.804;2022-09-09T15:56:13;23.10;51.50
4526;DHT22;2275;52.208;8.804;2022-09-09T15:58:40;23.30;55.10
4526;DHT22;2275;52.208;8.804;2022-09-09T16:01:08;23.50;54.50
4526;DHT22;2275;52.208;8.804;2022-09-09T16:03:34;23.50;53.60
4526;DHT22;2275;52.208;8.804;2022-09-09T16:06:04;23.80;57.00
4526;DHT22;2275;52.208;8.804;2022-09-09T16:08:34;24.10;55.90
4526;DHT22;2275;52.208;8.804;2022-09-09T16:11:16;24.40;55.90
4526;DHT22;2275;52.208;8.804;2022-09-09T16:13:47;24.50;55.40
4526;DHT22;2275;52.208;8.804;2022-09-09T16:16:17;24.30;53.30
4526;DHT22;2275;52.208;8.804;2022-09-09T16:18:44;24.10;55.20
4526;DHT22;2275;52.208;8.804;2022-09-09T16:21:15;23.80;56.40
4526;DHT22;2275;52.208;8.804;2022-09-09T16:23:42;23.80;55.60
4526;DHT22;2275;52.208;8.804;2022-09-09T16:26:17;23.90;56.30
4526;DHT22;2275;52.208;8.804;2022-09-09T16:28:47;23.80;57.40
4526;DHT22;2275;52.208;8.804;2022-09-09T16:31:16;23.80;55.60
4526;DHT22;2275;52.208;8.804;2022-09-09T16:33:42;23.70;58.10
4526;DHT22;2275;52.208;8.804;2022-09-09T16:36:11;23.50;58.70
4526;DHT22;2275;52.208;8.804;2022-09-09T16:38:38;23.60;58.10
4526;DHT22;2275;52.208;8.804;2022-09-09T16:41:06;23.60;58.10
4526;DHT22;2275;52.208;8.804;2022-09-09T16:43:34;23.60;61.20
4526;DHT22;2275;52.208;8.804;2022-09-09T16:46:03;23.60;64.30
4526;DHT22;2275;52.208;8.804;2022-09-09T16:48:31;23.50;63.90
4526;DHT22;2275;52.208;8.804;2022-09-09T16:51:05;23.60;60.90
4526;DHT22;2275;52.208;8.804;2022-09-09T16:53:32;23.50;63.60
4526;DHT22;2275;52.208;8.804;2022-09-09T16:56:05;23.50;63.70
4526;DHT22;2275;52.208;8.804;2022-09-09T16:58:32;23.30;65.70
4526;DHT22;2275;52.208;8.804;2022-09-09T17:00:59;23.20;68.00
4526;DHT22;2275;52.208;8.804;2022-09-09T17:03:26;23.10;68.90
4526;DHT22;2275;52.208;8.804;2022-09-09T17:05:53;23.10;66.90
4526;DHT22;2275;52.208;8.804;2022-09-09T17:08:20;22.80;61.70
4526;DHT22;2275;52.208;8.804;2022-09-09T17:10:47;22.70;61.50
4526;DHT22;2275;52.208;8.804;2022-09-09T17:13:14;22.00;99.90
4526;DHT22;2275;52.208;8.804;2022-09-09T17:15:41;20.80;10.50
4526;DHT22;2275;52.208;8.804;2022-09-09T17:18:10;19.40;1.00